Flight Track Log - Related Links

Times and Time Zones

All times are in EDT time to prevent confusion due to time zone crossing. See the GGN7287 flight status page for this flight to view local times or setup timezone preferences in your user account.

Time Position Orientation Groundspeed Altitude Reporting Facility
EDT Latitude Longitude Course Direction KTS MPH feet Rate Location/Type
Thu 03:34:04 PM 43.1078 -76.1292 279° West 135 155 1,200  Level Boston Center
Thu 03:35:28 PM 43.1175 -76.2150 279° West 173 199 3,600 1,581 Climbing Boston Center
Thu 03:37:10 PM 43.1586 -76.3050 302° West 191 220 6,100 1,370 Climbing Cleveland Center
Thu 03:38:10 PM 43.1858 -76.3658 302° West 191 220 7,300 1,300 Climbing Cleveland Center
Thu 03:39:10 PM 43.2008 -76.4361 286° West 191 220 8,700 1,250 Climbing Cleveland Center
Thu 03:40:10 PM 43.2097 -76.5067 280° West 191 220 9,800 1,100 Climbing Cleveland Center
Thu 03:41:10 PM 43.2144 -76.5833 275° West 196 226 10,900 1,150 Climbing Cleveland Center
Thu 03:42:10 PM 43.2169 -76.6572 273° West 196 226 12,100 1,100 Climbing Cleveland Center
Thu 03:43:10 PM 43.2214 -76.7311 275° West 196 226 13,100 1,050 Climbing Cleveland Center
Thu 03:44:10 PM 43.2219 -76.8108 271° West 196 226 14,200 1,100 Climbing Cleveland Center
Thu 03:45:10 PM 43.2267 -76.8875 275° West 196 226 15,300 900 Climbing Cleveland Center
Thu 03:46:10 PM 43.2311 -76.9642 275° West 201 231 16,000 400 Climbing Cleveland Center
Thu 03:47:10 PM 43.2358 -77.0553 274° West 212 244 16,100 50 Climbing Cleveland Center
Thu 03:48:10 PM 43.2386 -77.1433 273° West 231 266 16,100  Level Cleveland Center
Thu 03:49:10 PM 43.2392 -77.2344 271° West 236 272 16,100 -50 Level Cleveland Center
Thu 03:50:10 PM 43.2417 -77.3228 272° West 236 272 16,000  Descending Cleveland Center
Thu 03:51:10 PM 43.2483 -77.4108 276° West 236 272 16,100 50 Climbing Cleveland Center
Thu 03:52:10 PM 43.2508 -77.5019 272° West 236 272 16,100 -50 Level Cleveland Center
Thu 03:53:10 PM 43.2531 -77.5903 272° West 236 272 16,000 -50 Descending Cleveland Center
Thu 03:54:10 PM 43.2575 -77.6783 274° West 236 272 16,000  Level Cleveland Center
Thu 03:55:10 PM 43.2617 -77.7667 274° West 236 272 16,000  Level Cleveland Center
Thu 03:56:10 PM 43.2617 -77.8550 270° West 236 272 16,000 50 Level Cleveland Center
Thu 03:57:10 PM 43.2658 -77.9461 274° West 236 272 16,100  Climbing Cleveland Center
Thu 03:58:10 PM 43.2678 -78.0344 272° West 236 272 16,000 -50 Descending Cleveland Center
Thu 03:59:10 PM 43.2697 -78.1228 272° West 231 266 16,000  Level Cleveland Center
Thu 04:00:10 PM 43.2736 -78.2081 274° West 231 266 16,000  Level Cleveland Center
Thu 04:01:10 PM 43.2775 -78.2992 273° West 231 266 16,000 -350 Level Cleveland Center
Thu 04:02:10 PM 43.2794 -78.3933 272° West 237 273 15,300 -700 Descending Cleveland Center
Thu 04:03:10 PM 43.2811 -78.4900 271° West 249 287 14,600 -600 Descending Cleveland Center
Thu 04:04:10 PM 43.2853 -78.5983 273° West 254 292 14,100 -300 Descending Cleveland Center
Thu 04:05:10 PM 43.2867 -78.6867 271° West 248 285 14,000 -350 Descending Cleveland Center
Thu 04:06:10 PM 43.2903 -78.7808 273° West 248 285 13,400 -750 Descending Cleveland Center
Thu 04:07:10 PM 43.2917 -78.8747 271° West 248 285 12,500 -783 Descending Cleveland Center
Thu 04:07:42 PM 43.2833 -78.9000 246° West 260 299 12,200 -563 Descending Toronto Center

Login

Don't have an account? Register now (free) for customized features, flight alerts, and more!